Home > Products > Valid Products > MTR

000
SAUS43 KEAX 211459
MTRCDJ
METAR KCDJ 211452Z AUTO 00000KT 12/08 A3015 RMK AO1 SLP212 T01220078
51008





000
SAUS43 KEAX 211400 COR
MTRCDJ
METAR KCDJ 211352Z AUTO 00000KT 08/07 A3015 RMK AO1 SLP214 T00830072





000
SAUS43 KEAX 211256
MTRCDJ
METAR KCDJ 211252Z AUTO 00000KT 04/03 A3014 RMK AO1 SLP209 T00440033





000
SAUS43 KEAX 211200 COR
MTRCDJ
METAR KCDJ 211152Z AUTO 00000KT 05/03 A3013 RMK AO1 SLP206 T00500033
10072 20050 53014





000
SAUS43 KEAX 211200 COR
MTRCDJ
METAR KCDJ 211152Z AUTO 00000KT 05/03 A3013 RMK AO1 SLP206 T00500033
10072 20050 53014





000
SAUS43 KEAX 211100 COR
MTRCDJ
METAR KCDJ 211052Z AUTO 00000KT 06/04 A3011 RMK AO1 SLP197 T00560039





000
SAUS43 KEAX 211100 COR
MTRCDJ
METAR KCDJ 211052Z AUTO 00000KT 06/04 A3011 RMK AO1 SLP197 T00560039





000
SAUS43 KEAX 210956
MTRCDJ
METAR KCDJ 210952Z AUTO 00000KT 06/04 A3010 RMK AO1 SLP190 T00560044





000
SAUS43 KEAX 210956
MTRCDJ
METAR KCDJ 210952Z AUTO 00000KT 06/04 A3010 RMK AO1 SLP190 T00560044





000
SAUS43 KEAX 210900 COR
MTRCDJ
METAR KCDJ 210852Z AUTO 00000KT 06/04 A3009 RMK AO1 SLP186 T00610044
50003





000
SAUS43 KEAX 210800 COR
MTRCDJ
METAR KCDJ 210752Z AUTO 00000KT 06/05 A3009 RMK AO1 SLP187 T00610050





000
SAUS43 KEAX 210700 COR
MTRCDJ
METAR KCDJ 210652Z AUTO 00000KT 07/06 A3008 RMK AO1 SLP185 T00670056





000
SAUS43 KEAX 210600 COR
MTRCDJ
METAR KCDJ 210552Z AUTO 00000KT 07/06 A3008 RMK AO1 SLP184 T00720056
10139 20072 402330072 51003





000
SAUS43 KEAX 210456
MTRCDJ
METAR KCDJ 210452Z AUTO 00000KT 08/07 A3007 RMK AO1 SLP183 T00780067





000
SAUS43 KEAX 210456
MTRCDJ
METAR KCDJ 210452Z AUTO 00000KT 08/07 A3007 RMK AO1 SLP183 T00780067





000
SAUS43 KEAX 210400 COR
MTRCDJ
METAR KCDJ 210352Z AUTO 00000KT 08/07 A3007 RMK AO1 SLP182 T00830067





000
SAUS43 KEAX 210400 COR
MTRCDJ
METAR KCDJ 210352Z AUTO 00000KT 08/07 A3007 RMK AO1 SLP182 T00830067





000
SAUS43 KEAX 210259 COR
MTRCDJ
METAR KCDJ 210252Z AUTO 00000KT 09/07 A3007 RMK AO1 SLP181 T00940072
51008





000
SAUS43 KEAX 210259 COR
MTRCDJ
METAR KCDJ 210252Z AUTO 00000KT 09/07 A3007 RMK AO1 SLP181 T00940072
51008





000
SAUS43 KEAX 210200 COR
MTRCDJ
METAR KCDJ 210152Z AUTO 00000KT 11/08 A3006 RMK AO1 SLP178 T01060078





000
SAUS43 KEAX 210200 COR
MTRCDJ
METAR KCDJ 210152Z AUTO 00000KT 11/08 A3006 RMK AO1 SLP178 T01060078





000
SAUS43 KEAX 210059 COR
MTRCDJ
METAR KCDJ 210052Z AUTO 00000KT 12/08 A3005 RMK AO1 SLP180 T01170083





000
SAUS43 KEAX 210000 COR
MTRCDJ
METAR KCDJ 202352Z AUTO 00000KT 14/09 A3004 RMK AO1 SLP174 T01390089
10233 20139 53005





000
SAUS43 KEAX 202259 COR
MTRCDJ
METAR KCDJ 202252Z AUTO 00000KT 21/07 A3003 RMK AO1 SLP165 T02060072





000
SAUS43 KEAX 202259 COR
MTRCDJ
METAR KCDJ 202252Z AUTO 00000KT 21/07 A3003 RMK AO1 SLP165 T02060072





000
SAUS43 KEAX 202200 COR
MTRCDJ
METAR KCDJ 202152Z AUTO VRB05KT 23/06 A3002 RMK AO1 SLP160 T02280056





000
SAUS43 KEAX 202200 COR
MTRCDJ
METAR KCDJ 202152Z AUTO VRB05KT 23/06 A3002 RMK AO1 SLP160 T02280056





000
SAUS43 KEAX 202056
MTRCDJ
METAR KCDJ 202052Z AUTO VRB03KT 23/06 A3003 RMK AO1 SLP162 T02280061
56009





000
SAUS43 KEAX 202000 COR
MTRCDJ
METAR KCDJ 201952Z AUTO VRB03KT 23/06 A3003 RMK AO1 SLP162 T02280061





000
SAUS43 KEAX 201900 COR
MTRCDJ
METAR KCDJ 201852Z AUTO 01004KT 22/07 A3004 RMK AO1 SLP166 T02220067





000
SAUS43 KEAX 201759 COR
MTRCDJ
METAR KCDJ 201752Z AUTO VRB05KT 21/07 A3005 RMK AO1 SLP172 T02060072
10211 20083 58003





000
SAUS43 KEAX 201700 COR
MTRCDJ
METAR KCDJ 201652Z AUTO 05007KT 20/08 A3006 RMK AO1 SLP176 T02000078





000
SAUS43 KEAX 201601 COR
MTRCDJ
METAR KCDJ 201552Z AUTO 03006KT 18/08 A3006 RMK AO1 SLP178 T01830083





000
SAUS43 KEAX 201556
MTRCDJ
METAR KCDJ 201552Z AUTO 03006KT 18/08 A3006 RMK AO1 SLP178 T01830083





000
SAUS43 KEAX 201456
MTRCDJ
METAR KCDJ 201452Z AUTO 02004KT 16/09 A3006 RMK AO1 SLP179 T01560089
53021





000
SAUS43 KEAX 201400 COR
MTRCDJ
METAR KCDJ 201352Z AUTO 00000KT 14/09 A3004 RMK AO1 SLP174 T01390094





000
SAUS43 KEAX 201256
MTRCDJ
METAR KCDJ 201252Z AUTO 00000KT 08/07 A3001 RMK AO1 SLP165 T00830072





000
SAUS43 KEAX 201200 COR
MTRCDJ
METAR KCDJ 201152Z AUTO 00000KT 09/08 A3000 RMK AO1 SLP160 T00890078
10139 20089 53009





000
SAUS43 KEAX 201056
MTRCDJ
METAR KCDJ 201052Z AUTO VRB03KT 11/09 A2998 RMK AO1 SLP150 T01110089





000
SAUS43 KEAX 201056
MTRCDJ
METAR KCDJ 201052Z AUTO VRB03KT 11/09 A2998 RMK AO1 SLP150 T01110089





000
SAUS43 KEAX 200956
MTRCDJ
METAR KCDJ 200952Z AUTO 00000KT 12/09 A2997 RMK AO1 SLP147 T01220094





000
SAUS43 KEAX 200956
MTRCDJ
METAR KCDJ 200952Z AUTO 00000KT 12/09 A2997 RMK AO1 SLP147 T01220094





000
SAUS43 KEAX 200856
MTRCDJ
METAR KCDJ 200852Z AUTO 00000KT 12/09 A2997 RMK AO1 SLP146 T01220094
58006





000
SAUS43 KEAX 200800 COR
MTRCDJ
METAR KCDJ 200752Z AUTO VRB04KT 13/09 A2999 RMK AO1 SLP151 T01280094





000
SAUS43 KEAX 200656
MTRCDJ
METAR KCDJ 200652Z AUTO 23004KT 13/10 A2999 RMK AO1 SLP153 T01330100





000
SAUS43 KEAX 200556
MTRCDJ
METAR KCDJ 200552Z AUTO 23007KT 14/10 A2999 RMK AO1 SLP152 T01390100
10144 20100 401940022 50000





000
SAUS43 KEAX 200459 COR
MTRCDJ
METAR KCDJ 200452Z AUTO 22004KT 13/09 A3000 RMK AO1 SLP157 T01330094





000
SAUS43 KEAX 200400 COR
MTRCDJ
METAR KCDJ 200352Z AUTO 00000KT 12/09 A3000 RMK AO1 SLP160 T01220089





000
SAUS43 KEAX 200256
MTRCDJ
METAR KCDJ 200252Z AUTO 19003KT 11/09 A2999 RMK AO1 SLP157 T01110089
58008





000
SAUS43 KEAX 200200 COR
MTRCDJ
METAR KCDJ 200152Z AUTO 00000KT 11/09 A3000 RMK AO1 SLP163 T01060089





000
SAUS43 KEAX 200056
MTRCDJ
METAR KCDJ 200052Z AUTO 00000KT 12/09 A3001 RMK AO1 SLP168 T01220094





000
SAUS43 KEAX 200000 COR
MTRCDJ
METAR KCDJ 192352Z AUTO 00000KT 14/09 A3001 RMK AO1 SLP167 T01440094
10194 20144 56009





000
SAUS43 KEAX 200000 COR
MTRCDJ
METAR KCDJ 192352Z AUTO 00000KT 14/09 A3001 RMK AO1 SLP167 T01440094
10194 20144 56009





000
SAUS43 KEAX 192300 COR
MTRCDJ
METAR KCDJ 192252Z AUTO 17003KT 18/08 A3001 RMK AO1 SLP164 T01780083





000
SAUS43 KEAX 192300 COR
MTRCDJ
METAR KCDJ 192252Z AUTO 17003KT 18/08 A3001 RMK AO1 SLP164 T01780083





000
SAUS43 KEAX 192200 COR
MTRCDJ
METAR KCDJ 192152Z AUTO 20007KT 18/07 A3002 RMK AO1 SLP168 T01830072





000
SAUS43 KEAX 192059 COR
MTRCDJ
METAR KCDJ 192052Z AUTO 20005KT 19/08 A3004 RMK AO1 SLP173 T01940083
56033





000
SAUS43 KEAX 192000 COR
MTRCDJ
METAR KCDJ 191952Z AUTO 20009KT 18/07 A3007 RMK AO1 SLP183 T01830072





000
SAUS43 KEAX 191859 COR
MTRCDJ
METAR KCDJ 191852Z AUTO 19004KT 17/09 A3010 RMK AO1 SLP194 T01720094





000
SAUS43 KEAX 191800 COR
MTRCDJ
METAR KCDJ 191752Z AUTO 20009KT 16/08 A3014 RMK AO1 SLP208 T01560083
10161 20022 58017





000
SAUS43 KEAX 191700 COR
MTRCDJ
METAR KCDJ 191652Z AUTO 19009KT 14/08 A3016 RMK AO1 SLP217 T01440083





000
SAUS43 KEAX 191559 COR
MTRCDJ
METAR KCDJ 191552Z AUTO 19009KT 13/08 A3018 RMK AO1 SLP223 T01280083





000
SAUS43 KEAX 191459 COR
MTRCDJ
METAR KCDJ 191452Z AUTO 19006KT 10/07 A3019 RMK AO1 SLP228 T01000072
58005





000
SAUS43 KEAX 191400 COR
MTRCDJ
METAR KCDJ 191352Z AUTO 17003KT 07/06 A3020 RMK AO1 SLP234 T00670056





000
SAUS43 KEAX 191256
MTRCDJ
METAR KCDJ 191252Z AUTO 00000KT 03/02 A3020 RMK AO1 SLP234 T00330017





000
SAUS43 KEAX 191200 COR
MTRCDJ
METAR KCDJ 191152Z AUTO 00000KT 03/02 A3021 RMK AO1 SLP235 T00330022
10078 20033 55000





000
SAUS43 KEAX 191059 COR
MTRCDJ
METAR KCDJ 191052Z AUTO 00000KT 04/03 A3021 RMK AO1 SLP233 T00390028





000
SAUS43 KEAX 190956
MTRCDJ
METAR KCDJ 190952Z AUTO 00000KT 04/02 A3020 RMK AO1 SLP229 T00390022





000
SAUS43 KEAX 190956
MTRCDJ
METAR KCDJ 190952Z AUTO 00000KT 04/02 A3020 RMK AO1 SLP229 T00390022





000
SAUS43 KEAX 190856
MTRCDJ
METAR KCDJ 190852Z AUTO 00000KT 04/03 A3021 RMK AO1 SLP232 T00440028
50001





000
SAUS43 KEAX 190800 COR
MTRCDJ
METAR KCDJ 190752Z AUTO 00000KT 05/03 A3021 RMK AO1 SLP233 T00500033





000
SAUS43 KEAX 190700 COR
MTRCDJ
METAR KCDJ 190652Z AUTO 00000KT 06/04 A3021 RMK AO1 SLP230 T00560044





000
SAUS43 KEAX 190556
MTRCDJ
METAR KCDJ 190552Z AUTO 12004KT 08/05 A3020 RMK AO1 SLP230 T00780050
10117 20056 401720056 58008





000
SAUS43 KEAX 190500 COR
MTRCDJ
METAR KCDJ 190452Z AUTO 00000KT 06/04 A3022 RMK AO1 SLP237 T00560044





000
SAUS43 KEAX 190500 COR
MTRCDJ
METAR KCDJ 190452Z AUTO 00000KT 06/04 A3022 RMK AO1 SLP237 T00560044





000
SAUS43 KEAX 190400 COR
MTRCDJ
METAR KCDJ 190352Z AUTO 00000KT 06/05 A3023 RMK AO1 SLP241 T00610050





000
SAUS43 KEAX 190400 COR
MTRCDJ
METAR KCDJ 190352Z AUTO 00000KT 06/05 A3023 RMK AO1 SLP241 T00610050





000
SAUS43 KEAX 190300 COR
MTRCDJ
METAR KCDJ 190252Z AUTO 00000KT 07/05 A3023 RMK AO1 SLP240 T00720050
51008





000
SAUS43 KEAX 190159 COR
MTRCDJ
METAR KCDJ 190152Z AUTO 00000KT 08/06 A3022 RMK AO1 SLP238 T00780056





000
SAUS43 KEAX 190100 COR
MTRCDJ
METAR KCDJ 190052Z AUTO 00000KT 09/07 A3022 RMK AO1 SLP237 T00890067





000
SAUS43 KEAX 182359 COR
MTRCDJ
METAR KCDJ 182352Z AUTO 00000KT 12/07 A3020 RMK AO1 SLP232 T01170067
10172 20117 53002





000
SAUS43 KEAX 182300 COR
MTRCDJ
METAR KCDJ 182252Z AUTO VRB03KT 16/06 A3020 RMK AO1 SLP229 T01560061





000
SAUS43 KEAX 182200 COR
MTRCDJ
METAR KCDJ 182152Z AUTO 31003KT 17/06 A3020 RMK AO1 SLP225 T01670056





000
SAUS43 KEAX 182056
MTRCDJ
METAR KCDJ 182052Z AUTO 36006KT 17/06 A3020 RMK AO1 SLP226 T01670061
56015





000
SAUS43 KEAX 182000 COR
MTRCDJ
METAR KCDJ 181952Z AUTO 33004KT 17/06 A3020 RMK AO1 SLP228 T01670061





000
SAUS43 KEAX 182000 COR
MTRCDJ
METAR KCDJ 181952Z AUTO 33004KT 17/06 A3020 RMK AO1 SLP228 T01670061





000
SAUS43 KEAX 181900 COR
MTRCDJ
METAR KCDJ 181852Z AUTO 16/07 A3022 RMK AO1 SLP234 T01610067





000
SAUS43 KEAX 181756
MTRCDJ
METAR KCDJ 181752Z AUTO VRB04KT 16/06 A3024 RMK AO1 SLP242 T01560061
10156 20061 50002





000
SAUS43 KEAX 181700 COR
MTRCDJ
METAR KCDJ 181652Z AUTO 01006KT 14/06 A3025 RMK AO1 SLP242 T01440061





000
SAUS43 KEAX 181700 COR
MTRCDJ
METAR KCDJ 181652Z AUTO 01006KT 14/06 A3025 RMK AO1 SLP242 T01440061





000
SAUS43 KEAX 181556
MTRCDJ
METAR KCDJ 181552Z AUTO VRB04KT 12/06 A3025 RMK AO1 SLP243 T01220061





000
SAUS43 KEAX 181556
MTRCDJ
METAR KCDJ 181552Z AUTO VRB04KT 12/06 A3025 RMK AO1 SLP243 T01220061





    US Dept of Commerce
    National Oceanic and Atmospheric Administration
    National Weather Service
    1325 East West Highway
    Silver Spring, MD 20910
    Page Author: NWS Internet Services Team
Disclaimer
Information Quality
Credits
Glossary
Privacy Policy
Freedom of Information Act (FOIA)
About Us
Career Opportunities